KCSM/CSM METAR and TAF weather

Enter ICAO airport designator
Station Type Date Time Source
KCSM METAR 2021/09/23 18:53 UTC NOAA

KCSM 231853Z 20015G22KT 10SM CLR 28/02 A3008 RMK AO2 SLP167 T02780017 $


Station Type Date Time Source
KCSM Decoded METAR 2021/09/23 18:53 UTC NOAA

CLINTON-SHERMAN AIRPORT, OK, United States (KCSM) 35-21E 99-12W 588M
Sep 23, 2021 - 02:53 PM EDT / 2021.09.23 1853 UTC
Wind: from the SSW (200 degrees) at 17 MPH (15 KT) gusting to 25 MPH (22 KT):0
Visibility: 10 mile(s):0
Sky conditions: clear
Temperature: 82.0 F (27.8 C)
Dew Point: 35.1 F (1.7 C)
Relative Humidity: 18%
Pressure (altimeter): 30.08 in. Hg (1018 hPa)
ob: KCSM 231853Z 20015G22KT 10SM CLR 28/02 A3008 RMK AO2 SLP167 T02780017
cycle: 19

Station Type Date Time Source
KCSM TAF 2021/09/23 18:27 UTC NOAA

TAF KCSM 231723Z 2318/2418 19015G24KT P6SM FEW250
FM240000 17010KT P6SM SCT250

Example: see airport list